createdAt,value
2023-02-11T00:01:16.658Z,35.22
2023-02-11T00:04:19.595Z,35.13
2023-02-11T00:07:22.545Z,34.47
2023-02-11T00:10:25.440Z,37.80
2023-02-11T00:13:28.465Z,38.35
2023-02-11T00:16:32.574Z,35.72
2023-02-11T00:19:35.540Z,34.08
2023-02-11T00:22:38.493Z,35.73
2023-02-11T00:25:43.270Z,35.65
2023-02-11T00:28:47.265Z,33.33
2023-02-11T00:31:51.913Z,31.85
2023-02-11T00:34:55.472Z,34.65
2023-02-11T00:38:01.350Z,36.63
2023-02-11T00:41:05.075Z,31.05
2023-02-11T00:44:07.926Z,32.22
2023-02-11T00:47:10.746Z,35.88
2023-02-11T00:50:13.878Z,33.55
2023-02-11T00:53:16.801Z,32.00
2023-02-11T00:56:20.562Z,33.33
2023-02-11T00:59:23.469Z,30.30
2023-02-11T01:02:26.438Z,32.22
2023-02-11T01:05:35.619Z,31.73
2023-02-11T01:08:39.918Z,29.87
2023-02-11T01:11:44.525Z,32.63
2023-02-11T01:14:47.803Z,32.10
2023-02-11T01:17:51.067Z,32.10
2023-02-11T01:20:55.983Z,31.13
2023-02-11T01:23:59.394Z,28.47
2023-02-11T01:27:02.278Z,32.78
2023-02-11T01:30:07.042Z,34.60
2023-02-11T01:33:09.967Z,31.50
2023-02-11T01:36:13.419Z,28.40
2023-02-11T01:39:16.772Z,34.17
2023-02-11T01:42:24.212Z,32.67
2023-02-11T01:45:46.272Z,30.60
2023-02-11T01:48:55.481Z,34.13
2023-02-11T01:52:13.408Z,37.83
2023-02-11T01:55:35.850Z,29.83
2023-02-11T01:58:42.382Z,35.50
2023-02-11T02:01:56.290Z,31.77
2023-02-11T02:05:28.816Z,30.02
2023-02-11T02:08:38.982Z,29.27
2023-02-11T02:11:44.908Z,28.70
2023-02-11T02:14:47.751Z,32.97
2023-02-11T02:18:01.726Z,30.85
2023-02-11T02:21:36.498Z,32.55
2023-02-11T02:25:01.204Z,31.83
2023-02-11T02:28:44.546Z,32.73
2023-02-11T02:31:55.154Z,33.08
2023-02-11T02:35:26.803Z,33.30
2023-02-11T02:38:38.778Z,31.95
2023-02-11T02:41:42.846Z,33.17
2023-02-11T02:44:53.532Z,36.90
2023-02-11T02:47:56.727Z,32.60
2023-02-11T02:51:32.998Z,36.35
2023-02-11T02:54:54.329Z,31.30
2023-02-11T02:58:17.449Z,35.90
2023-02-11T03:01:26.558Z,38.10
2023-02-11T03:04:45.169Z,38.97
2023-02-11T03:07:56.067Z,34.97
2023-02-11T03:11:01.643Z,39.03
2023-02-11T03:14:11.327Z,37.08
2023-02-11T03:17:15.439Z,38.13
2023-02-11T03:20:22.065Z,37.20
2023-02-11T03:23:37.853Z,38.95
2023-02-11T03:26:46.778Z,37.10
2023-02-11T03:30:18.778Z,39.30
2023-02-11T03:33:30.691Z,40.70
2023-02-11T03:36:46.234Z,41.05
2023-02-11T03:39:56.233Z,36.75
2023-02-11T03:43:23.224Z,40.25
2023-02-11T03:46:38.202Z,41.83
2023-02-11T03:49:45.140Z,45.27
2023-02-11T03:52:50.020Z,50.28
2023-02-11T03:55:55.391Z,46.35
2023-02-11T03:58:58.410Z,42.33
2023-02-11T04:02:01.304Z,39.38
2023-02-11T04:05:06.777Z,34.40
2023-02-11T04:08:09.817Z,42.13
2023-02-11T04:11:12.894Z,36.47
2023-02-11T04:14:16.227Z,38.35
2023-02-11T04:17:19.294Z,35.20
2023-02-11T04:20:22.174Z,38.83
2023-02-11T04:23:25.013Z,33.72
2023-02-11T04:26:27.966Z,33.15
2023-02-11T04:29:32.132Z,35.78
2023-02-11T04:32:38.356Z,31.05
2023-02-11T04:35:41.551Z,32.80
2023-02-11T04:38:44.501Z,35.20
2023-02-11T04:41:47.418Z,39.05
2023-02-11T04:44:50.379Z,30.98
2023-02-11T04:47:53.264Z,33.25
2023-02-11T04:50:56.326Z,31.47
2023-02-11T04:53:59.390Z,36.15
2023-02-11T04:57:05.633Z,36.05
2023-02-11T05:00:10.085Z,42.85
2023-02-11T05:03:13.488Z,43.50
2023-02-11T05:06:16.258Z,40.80
2023-02-11T05:09:19.241Z,40.45
2023-02-11T05:12:22.158Z,35.85
2023-02-11T05:15:25.045Z,33.50
2023-02-11T05:18:28.228Z,43.25
2023-02-11T05:21:31.384Z,39.83
2023-02-11T05:24:34.647Z,40.35
2023-02-11T05:27:37.742Z,36.53
2023-02-11T05:30:40.866Z,32.42
2023-02-11T05:33:43.951Z,39.22
2023-02-11T05:36:46.885Z,37.83
2023-02-11T05:39:49.925Z,33.13
2023-02-11T05:42:52.886Z,36.22
2023-02-11T05:45:55.812Z,37.08
2023-02-11T05:48:58.974Z,36.35
2023-02-11T05:52:01.914Z,33.13
2023-02-11T05:55:05.251Z,35.95
2023-02-11T05:58:10.975Z,33.83
2023-02-11T06:01:13.970Z,34.47
2023-02-11T06:04:16.910Z,38.38
2023-02-11T06:07:19.982Z,38.67
2023-02-11T06:10:22.869Z,39.63
2023-02-11T06:13:25.782Z,40.05
2023-02-11T06:16:28.807Z,39.13
2023-02-11T06:19:31.875Z,40.22
2023-02-11T06:22:35.122Z,34.77
2023-02-11T06:25:38.081Z,41.13
2023-02-11T06:28:42.067Z,41.45
2023-02-11T06:31:45.250Z,40.30
2023-02-11T06:34:48.350Z,39.53
2023-02-11T06:37:53.958Z,47.53
2023-02-11T06:40:57.129Z,45.63
2023-02-11T06:43:59.992Z,42.95
2023-02-11T06:47:02.930Z,41.33
2023-02-11T06:50:08.120Z,41.05
2023-02-11T06:53:11.033Z,38.83
2023-02-11T06:56:20.281Z,35.45
2023-02-11T06:59:23.239Z,37.72
2023-02-11T07:02:26.403Z,37.03
2023-02-11T07:05:29.701Z,36.58
2023-02-11T07:08:37.220Z,39.83
2023-02-11T07:11:40.051Z,32.95
2023-02-11T07:14:43.238Z,37.05
2023-02-11T07:17:46.163Z,36.22
2023-02-11T07:20:49.041Z,58.15
2023-02-11T07:23:52.198Z,38.20
2023-02-11T07:26:55.160Z,44.80
2023-02-11T07:29:58.066Z,41.08
2023-02-11T07:33:01.027Z,34.92
2023-02-11T07:36:05.305Z,38.80
2023-02-11T07:39:11.024Z,46.07
2023-02-11T07:42:14.183Z,37.78
2023-02-11T07:45:18.278Z,41.15
2023-02-11T07:48:21.308Z,37.28
2023-02-11T07:51:27.673Z,38.10
2023-02-11T07:54:30.946Z,49.37
2023-02-11T07:57:33.931Z,45.55
2023-02-11T08:00:37.226Z,45.65
2023-02-11T08:03:42.909Z,43.78
2023-02-11T08:06:46.026Z,38.42
2023-02-11T08:09:49.143Z,38.03
2023-02-11T08:12:52.157Z,40.35
2023-02-11T08:15:57.838Z,39.90
2023-02-11T08:19:04.673Z,43.75
2023-02-11T08:22:07.803Z,39.83
2023-02-11T08:25:13.215Z,42.10
2023-02-11T08:28:16.061Z,41.80
2023-02-11T08:31:28.225Z,42.92
2023-02-11T08:34:31.268Z,42.47
2023-02-11T08:37:34.667Z,45.28
2023-02-11T08:40:37.570Z,44.70
2023-02-11T08:43:44.450Z,47.33
2023-02-11T08:46:47.819Z,44.30
2023-02-11T08:49:50.734Z,42.25
2023-02-11T08:52:53.630Z,44.50
2023-02-11T08:55:56.697Z,48.00
2023-02-11T08:58:59.722Z,51.72
2023-02-11T09:02:04.991Z,52.22
2023-02-11T09:05:09.215Z,47.53
2023-02-11T09:08:12.444Z,52.15
2023-02-11T09:11:17.201Z,55.20
2023-02-11T09:14:22.565Z,47.90
2023-02-11T09:17:25.678Z,49.35
2023-02-11T09:20:28.788Z,46.38
2023-02-11T09:23:34.491Z,44.13
2023-02-11T09:26:38.324Z,47.60
2023-02-11T09:29:41.149Z,29.17
2023-02-11T09:32:44.269Z,23.35
2023-02-11T09:35:47.498Z,36.63
2023-02-11T09:38:50.897Z,47.22
2023-02-11T09:42:03.274Z,27.70
2023-02-11T09:45:15.958Z,24.13
2023-02-11T09:48:21.999Z,24.70
2023-02-11T09:51:53.874Z,35.35
2023-02-11T09:55:02.758Z,42.55
2023-02-11T09:58:16.408Z,39.83
2023-02-11T10:02:00.778Z,41.25
2023-02-11T10:05:06.472Z,34.33
2023-02-11T10:08:20.180Z,33.67
2023-02-11T10:11:41.041Z,36.88
2023-02-11T10:15:15.900Z,24.97
2023-02-11T10:19:05.389Z,24.70
2023-02-11T10:22:25.718Z,29.35
2023-02-11T10:25:35.410Z,32.65
2023-02-11T10:28:40.555Z,37.10
2023-02-11T10:31:46.434Z,39.93
2023-02-11T10:35:00.031Z,41.78
2023-02-11T10:38:03.559Z,40.17
2023-02-11T10:41:07.375Z,39.53
2023-02-11T10:44:33.703Z,42.83
2023-02-11T10:47:39.268Z,42.00
2023-02-11T10:50:42.483Z,34.53
2023-02-11T10:53:47.542Z,30.90
2023-02-11T10:56:58.774Z,29.13
2023-02-11T11:00:25.920Z,25.52
2023-02-11T11:03:40.306Z,24.53
2023-02-11T11:06:47.010Z,25.13
2023-02-11T11:09:55.645Z,30.65
2023-02-11T11:12:58.645Z,31.50
2023-02-11T11:16:22.231Z,33.50
2023-02-11T11:19:25.886Z,27.03
2023-02-11T11:22:29.237Z,25.13
2023-02-11T11:25:32.303Z,26.73
2023-02-11T11:28:47.059Z,20.88
2023-02-11T11:32:04.463Z,21.40
2023-02-11T11:35:23.534Z,25.57
2023-02-11T11:38:29.451Z,21.65
2023-02-11T11:41:34.664Z,22.27
2023-02-11T11:44:39.915Z,18.25
2023-02-11T11:48:20.922Z,20.42
2023-02-11T11:51:28.434Z,35.93
2023-02-11T11:54:32.088Z,29.48
2023-02-11T11:57:38.600Z,40.60
2023-02-11T12:01:15.840Z,37.35
2023-02-11T12:04:27.984Z,42.80
2023-02-11T12:07:44.039Z,40.53
2023-02-11T12:10:46.813Z,39.20
2023-02-11T12:14:04.689Z,38.42
2023-02-11T12:17:16.845Z,39.38
2023-02-11T12:20:26.338Z,37.90
2023-02-11T12:23:58.039Z,36.03
2023-02-11T12:27:10.938Z,39.10
2023-02-11T12:30:28.765Z,36.53
2023-02-11T12:34:04.902Z,36.40
2023-02-11T12:37:32.879Z,35.15
2023-02-11T12:40:55.472Z,37.80
2023-02-11T12:43:59.273Z,40.58
2023-02-11T12:47:25.082Z,37.22
2023-02-11T12:51:14.520Z,37.00
2023-02-11T12:54:54.484Z,40.95
2023-02-11T12:58:01.916Z,36.77
2023-02-11T13:01:18.789Z,39.15
2023-02-11T13:04:37.696Z,40.97
2023-02-11T13:07:45.950Z,37.45
2023-02-11T13:10:59.819Z,43.00
2023-02-11T13:14:41.306Z,40.50
2023-02-11T13:17:58.413Z,45.83
2023-02-11T13:21:16.960Z,42.42
2023-02-11T13:24:26.553Z,45.75
2023-02-11T13:27:51.356Z,46.10
2023-02-11T13:31:05.016Z,41.43
2023-02-11T13:34:47.988Z,46.47
2023-02-11T13:37:51.336Z,45.13
2023-02-11T13:41:06.187Z,42.92
2023-02-11T13:44:09.127Z,49.15
2023-02-11T13:47:30.439Z,43.00
2023-02-11T13:50:39.758Z,43.10
2023-02-11T13:53:56.975Z,40.53
2023-02-11T13:57:23.439Z,43.75
2023-02-11T14:00:35.556Z,40.10
2023-02-11T14:04:18.289Z,48.23
2023-02-11T14:07:51.570Z,41.85
2023-02-11T14:11:00.828Z,45.92
2023-02-11T14:14:21.967Z,43.47
2023-02-11T14:17:31.580Z,47.83
2023-02-11T14:20:45.450Z,41.87
2023-02-11T14:23:51.503Z,44.78
2023-02-11T14:27:01.661Z,52.80
2023-02-11T14:30:26.481Z,45.10
2023-02-11T14:33:44.168Z,42.28
2023-02-11T14:36:53.019Z,52.07
2023-02-11T14:40:16.006Z,42.15
2023-02-11T14:43:24.561Z,44.65
2023-02-11T14:46:33.016Z,39.75
2023-02-11T14:49:39.890Z,40.17
2023-02-11T14:52:44.426Z,40.13
2023-02-11T14:55:52.589Z,44.78
2023-02-11T14:58:55.917Z,48.42
2023-02-11T15:01:59.440Z,42.25
2023-02-11T15:05:28.096Z,46.55
2023-02-11T15:08:33.658Z,47.30
2023-02-11T15:11:42.703Z,45.90
2023-02-11T15:14:53.141Z,45.40
2023-02-11T15:17:59.621Z,46.85
2023-02-11T15:21:03.138Z,44.47
2023-02-11T15:24:23.949Z,51.23
2023-02-11T15:27:26.920Z,38.58
2023-02-11T15:30:34.210Z,40.70
2023-02-11T15:33:37.280Z,35.50
2023-02-11T15:36:40.529Z,34.35
2023-02-11T15:39:45.958Z,35.03
2023-02-11T15:42:58.089Z,33.58
2023-02-11T15:46:02.110Z,38.67
2023-02-11T15:49:06.574Z,40.22
2023-02-11T15:52:09.639Z,39.35
2023-02-11T15:55:15.999Z,38.73
2023-02-11T15:58:20.017Z,37.13
2023-02-11T16:01:35.746Z,42.90
2023-02-11T16:04:39.148Z,44.95
2023-02-11T16:07:47.817Z,46.55
2023-02-11T16:11:02.626Z,47.70
2023-02-11T16:14:21.292Z,45.67
2023-02-11T16:17:30.439Z,43.78
2023-02-11T16:20:34.313Z,40.88
2023-02-11T16:23:42.103Z,48.25
2023-02-11T16:26:49.728Z,49.53
2023-02-11T16:29:53.342Z,47.22
2023-02-11T16:32:57.309Z,42.53
2023-02-11T16:36:02.245Z,43.25
2023-02-11T16:39:06.064Z,43.75
2023-02-11T16:42:11.601Z,44.47
2023-02-11T16:45:15.621Z,43.65
2023-02-11T16:48:20.163Z,46.00
2023-02-11T16:51:23.595Z,42.10
2023-02-11T16:54:27.753Z,44.13
2023-02-11T16:57:31.209Z,52.73
2023-02-11T17:00:34.512Z,64.20
2023-02-11T17:03:40.634Z,63.28
2023-02-11T17:06:44.665Z,67.65
2023-02-11T17:09:47.864Z,68.18
2023-02-11T17:12:51.189Z,66.57
2023-02-11T17:15:54.734Z,74.80
2023-02-11T17:18:58.501Z,77.90
2023-02-11T17:22:01.813Z,81.70
2023-02-11T17:25:04.949Z,79.13
2023-02-11T17:28:09.785Z,79.20
2023-02-11T17:31:13.331Z,52.08
2023-02-11T17:34:17.419Z,47.58
2023-02-11T17:37:21.154Z,41.22
2023-02-11T17:40:24.443Z,40.55
2023-02-11T17:43:28.391Z,42.07
2023-02-11T17:46:34.743Z,45.55
2023-02-11T17:49:38.464Z,42.97
2023-02-11T17:52:41.804Z,39.90
2023-02-11T17:55:44.934Z,44.65
2023-02-11T17:58:48.331Z,41.00
2023-02-11T18:01:51.522Z,41.40
2023-02-11T18:04:58.917Z,43.70
2023-02-11T18:08:02.816Z,42.15
2023-02-11T18:11:10.113Z,45.67
2023-02-11T18:14:13.414Z,44.57
2023-02-11T18:17:17.045Z,53.95
2023-02-11T18:20:20.390Z,65.80
2023-02-11T18:23:23.544Z,45.67
2023-02-11T18:26:28.166Z,47.63
2023-02-11T18:29:31.516Z,44.97
2023-02-11T18:32:37.231Z,47.47
2023-02-11T18:35:43.801Z,43.33
2023-02-11T18:38:47.203Z,47.60
2023-02-11T18:41:54.547Z,58.65
2023-02-11T18:44:59.806Z,56.57
2023-02-11T18:48:05.390Z,53.67
2023-02-11T18:51:15.939Z,51.63
2023-02-11T18:54:19.026Z,43.17
2023-02-11T18:57:22.328Z,46.92
2023-02-11T19:00:25.583Z,43.40
2023-02-11T19:03:28.532Z,54.90
2023-02-11T19:06:35.561Z,58.67
2023-02-11T19:09:41.417Z,53.05
2023-02-11T19:12:44.719Z,45.47
2023-02-11T19:15:47.990Z,42.07
2023-02-11T19:18:51.270Z,40.53
2023-02-11T19:21:56.019Z,46.10
2023-02-11T19:24:59.154Z,40.10
2023-02-11T19:28:03.403Z,31.00
2023-02-11T19:31:10.000Z,35.63
2023-02-11T19:34:16.048Z,29.13
2023-02-11T19:37:19.659Z,28.48
2023-02-11T19:40:25.710Z,28.80
2023-02-11T19:43:29.172Z,26.02
2023-02-11T19:46:37.610Z,25.90
2023-02-11T19:49:40.882Z,22.95
2023-02-11T19:52:44.731Z,27.63
2023-02-11T19:55:48.902Z,27.00
2023-02-11T19:58:52.066Z,25.30
2023-02-11T20:01:55.367Z,23.40
2023-02-11T20:04:58.531Z,25.58
2023-02-11T20:08:01.426Z,30.63
2023-02-11T20:11:06.931Z,25.08
2023-02-11T20:14:12.866Z,25.90
2023-02-11T20:17:16.141Z,23.87
2023-02-11T20:20:19.547Z,26.10
2023-02-11T20:23:24.368Z,26.50
2023-02-11T20:26:30.729Z,27.52
2023-02-11T20:29:36.691Z,24.17
2023-02-11T20:32:41.247Z,19.70
2023-02-11T20:35:44.178Z,15.65
2023-02-11T20:38:48.434Z,14.55
2023-02-11T20:41:53.400Z,24.40
2023-02-11T20:44:56.565Z,16.55
2023-02-11T20:47:59.773Z,15.23
2023-02-11T20:51:05.301Z,11.52
2023-02-11T20:54:12.879Z,17.67
2023-02-11T20:57:16.141Z,13.45
2023-02-11T21:00:19.545Z,14.38
2023-02-11T21:03:22.824Z,18.47
2023-02-11T21:06:30.793Z,14.20
2023-02-11T21:09:33.953Z,16.98
2023-02-11T21:12:37.254Z,16.27
2023-02-11T21:15:40.581Z,18.15
2023-02-11T21:18:44.237Z,12.57
2023-02-11T21:21:50.609Z,13.10
2023-02-11T21:24:53.730Z,14.77
2023-02-11T21:27:56.885Z,13.25
2023-02-11T21:31:00.080Z,18.20
2023-02-11T21:34:03.986Z,14.60
2023-02-11T21:37:07.243Z,13.25
2023-02-11T21:40:11.963Z,15.75
2023-02-11T21:43:15.234Z,17.73
2023-02-11T21:46:20.198Z,15.80
2023-02-11T21:49:23.364Z,14.97
2023-02-11T21:52:26.456Z,16.90
2023-02-11T21:55:29.593Z,17.17
2023-02-11T21:58:33.673Z,18.60
2023-02-11T22:01:37.317Z,23.65
2023-02-11T22:04:40.673Z,38.63
2023-02-11T22:07:43.828Z,23.08
2023-02-11T22:10:47.550Z,14.13
2023-02-11T22:13:55.630Z,18.52
2023-02-11T22:16:58.544Z,15.88
2023-02-11T22:20:01.650Z,17.07
2023-02-11T22:23:04.727Z,17.38
2023-02-11T22:26:13.097Z,18.98
2023-02-11T22:29:16.458Z,16.13
2023-02-11T22:32:19.588Z,17.73
2023-02-11T22:35:22.441Z,15.57
2023-02-11T22:38:25.735Z,17.15
2023-02-11T22:41:29.427Z,17.92
2023-02-11T22:44:32.312Z,18.38
2023-02-11T22:47:37.667Z,12.55
2023-02-11T22:50:40.899Z,12.93
2023-02-11T22:53:44.637Z,14.32
2023-02-11T22:56:51.073Z,16.25
2023-02-11T22:59:54.548Z,16.10
2023-02-11T23:02:57.524Z,16.00
2023-02-11T23:06:01.384Z,14.93
2023-02-11T23:09:08.857Z,15.02
2023-02-11T23:12:11.776Z,15.20
2023-02-11T23:15:14.650Z,18.38
2023-02-11T23:18:17.537Z,17.05
2023-02-11T23:21:23.890Z,15.50
2023-02-11T23:24:26.779Z,15.07
2023-02-11T23:27:29.607Z,15.38
2023-02-11T23:30:32.503Z,17.50
2023-02-11T23:33:35.418Z,17.00
2023-02-11T23:36:38.386Z,21.40
2023-02-11T23:39:42.210Z,15.93
2023-02-11T23:42:45.902Z,18.25
2023-02-11T23:45:49.056Z,15.32
2023-02-11T23:48:52.594Z,15.50
2023-02-11T23:51:55.641Z,13.60
2023-02-11T23:54:58.556Z,16.67
2023-02-11T23:58:01.439Z,17.55
